Time;durP1;ratioP1;P1;durP2;ratioP2;P2;SDS_P1;SDS_P2;PMS_P1;PMS_P2;Temp;Humidity;BMP_temperature;BMP_pressure;BME280_temperature;BME280_humidity;BME280_pressure;Samples;Min_cycle;Max_cycle;Signal;HPM_P1;HPM_P2
2023/12/28 00:00:06;;;;;;;;;;;7.20;99.90;;;;;;5053554;28;19920;-73
2023/12/28 00:02:34;;;;;;;;;;;6.80;99.90;;;;;;5057510;28;19935;-73
2023/12/28 00:05:02;;;;;;;;;;;6.60;99.90;;;;;;5051901;28;19924;-73
2023/12/28 00:07:30;;;;;;;;;;;6.50;99.90;;;;;;5050301;28;19921;-73
2023/12/28 00:09:57;;;;;;;;;;;6.30;99.90;;;;;;5050968;28;19925;-73
2023/12/28 00:12:25;;;;;;;;;;;6.10;99.90;;;;;;5046772;28;19959;-74
2023/12/28 00:14:53;;;;;;;;;;;6.20;99.90;;;;;;5054689;28;20011;-73
2023/12/28 00:17:23;;;;;;;;;;;6.20;99.90;;;;;;5054684;28;20296;-72
2023/12/28 00:19:50;;;;;;;;;;;6.20;99.90;;;;;;5056271;28;19920;-73
2023/12/28 00:22:18;;;;;;;;;;;6.10;99.90;;;;;;5059380;28;19935;-73
2023/12/28 00:24:46;;;;;;;;;;;6.10;99.90;;;;;;5054507;28;19921;-74
2023/12/28 00:27:14;;;;;;;;;;;6.10;99.90;;;;;;5061967;28;19967;-74
2023/12/28 00:29:43;;;;;;;;;;;6.00;99.90;;;;;;5059481;28;19929;-73
2023/12/28 00:32:10;;;;;;;;;;;6.00;99.90;;;;;;5065138;28;19927;-74
2023/12/28 00:34:39;;;;;;;;;;;6.00;99.90;;;;;;5058189;28;19929;-74
2023/12/28 00:37:07;;;;;;;;;;;6.10;99.90;;;;;;5048446;28;19927;-73
2023/12/28 00:39:35;;;;;;;;;;;6.20;99.90;;;;;;5057715;28;19982;-73
2023/12/28 00:42:04;;;;;;;;;;;6.20;99.90;;;;;;5048846;28;19978;-73
2023/12/28 00:44:32;;;;;;;;;;;6.40;99.90;;;;;;5059135;28;20005;-73
2023/12/28 00:46:59;;;;;;;;;;;6.40;99.90;;;;;;5060312;28;19921;-74
2023/12/28 00:49:27;;;;;;;;;;;6.40;99.90;;;;;;5059592;28;19924;-74
2023/12/28 00:51:56;;;;;;;;;;;6.50;99.90;;;;;;5058593;28;19927;-74
2023/12/28 00:54:24;;;;;;;;;;;6.50;99.90;;;;;;5060310;28;19924;-73
2023/12/28 00:56:52;;;;;;;;;;;6.70;99.90;;;;;;5063146;28;19971;-74
2023/12/28 00:59:20;;;;;;;;;;;6.70;99.90;;;;;;5054310;28;20387;-73
2023/12/28 01:01:48;;;;;;;;;;;6.90;99.90;;;;;;5055204;28;19926;-74
2023/12/28 01:04:16;;;;;;;;;;;6.80;99.90;;;;;;5058637;28;19924;-73
2023/12/28 01:06:44;;;;;;;;;;;6.90;99.90;;;;;;5051760;28;20280;-73
2023/12/28 01:09:13;;;;;;;;;;;6.80;99.90;;;;;;5059608;28;19944;-73
2023/12/28 01:11:41;;;;;;;;;;;6.80;99.90;;;;;;5053480;28;20414;-74
2023/12/28 01:14:09;;;;;;;;;;;6.90;99.90;;;;;;5059633;28;20413;-73
2023/12/28 01:16:39;;;;;;;;;;;7.00;99.90;;;;;;5054997;28;19975;-73
2023/12/28 01:19:07;;;;;;;;;;;7.00;99.90;;;;;;5058428;28;19924;-74
2023/12/28 01:21:35;;;;;;;;;;;7.00;99.90;;;;;;5053236;28;20379;-74
2023/12/28 01:24:02;;;;;;;;;;;7.00;99.90;;;;;;5060475;28;19927;-73
2023/12/28 01:26:31;;;;;;;;;;;7.00;99.90;;;;;;5056407;28;19928;-73
2023/12/28 01:29:01;;;;;;;;;;;7.00;99.90;;;;;;5057593;28;19924;-74
2023/12/28 01:31:30;;;;;;;;;;;7.00;99.90;;;;;;5061966;28;19920;-75
2023/12/28 01:33:58;;;;;;;;;;;6.90;99.90;;;;;;5030643;28;19920;-72
2023/12/28 01:36:29;;;;;;;;;;;6.80;99.90;;;;;;5052646;28;19925;-73
2023/12/28 01:38:57;;;;;;;;;;;6.80;99.90;;;;;;5047148;28;20287;-73
2023/12/28 01:41:24;;;;;;;;;;;6.90;99.90;;;;;;5050592;28;19921;-73
2023/12/28 01:43:53;;;;;;;;;;;6.90;99.90;;;;;;5047731;28;19983;-74
2023/12/28 01:46:22;;;;;;;;;;;7.00;99.90;;;;;;5046771;28;20346;-75
2023/12/28 01:48:50;;;;;;;;;;;7.00;99.90;;;;;;5050235;28;19978;-72
2023/12/28 01:51:19;;;;;;;;;;;7.10;99.90;;;;;;5043981;28;20335;-73
2023/12/28 01:53:49;;;;;;;;;;;7.10;99.90;;;;;;5041586;28;19943;-73
2023/12/28 01:56:18;;;;;;;;;;;7.10;99.90;;;;;;5050815;28;20383;-73
2023/12/28 01:58:47;;;;;;;;;;;7.20;99.90;;;;;;5045461;28;19929;-74
2023/12/28 02:01:16;;;;;;;;;;;7.30;99.90;;;;;;5051772;28;19928;-72
2023/12/28 02:03:45;;;;;;;;;;;7.40;99.90;;;;;;5055945;28;19952;-72
2023/12/28 02:06:15;;;;;;;;;;;7.30;99.90;;;;;;5052487;28;19927;-71
2023/12/28 02:08:43;;;;;;;;;;;7.30;99.90;;;;;;5049626;28;19928;-72
2023/12/28 02:11:11;;;;;;;;;;;7.30;99.90;;;;;;5050311;28;20351;-73
2023/12/28 02:13:41;;;;;;;;;;;7.30;99.90;;;;;;5050284;28;20295;-71
2023/12/28 02:16:12;;;;;;;;;;;7.30;99.90;;;;;;5049662;28;19928;-73
2023/12/28 02:18:46;;;;;;;;;;;7.20;99.90;;;;;;5043615;28;19920;-72
2023/12/28 02:21:14;;;;;;;;;;;7.10;99.90;;;;;;5044720;28;19921;-71
2023/12/28 02:23:46;;;;;;;;;;;7.20;99.90;;;;;;5050118;28;19932;-73
2023/12/28 02:26:15;;;;;;;;;;;7.40;99.90;;;;;;5050537;28;19927;-71
2023/12/28 02:28:44;;;;;;;;;;;7.40;99.90;;;;;;5041511;28;19921;-71
2023/12/28 02:31:15;;;;;;;;;;;7.30;99.90;;;;;;5053923;28;19920;-71
2023/12/28 02:33:48;;;;;;;;;;;7.10;99.90;;;;;;5050354;28;19921;-71
2023/12/28 02:36:17;;;;;;;;;;;7.10;99.90;;;;;;5050352;28;19927;-70
2023/12/28 02:38:46;;;;;;;;;;;7.10;99.90;;;;;;5048959;28;19921;-71
2023/12/28 02:41:16;;;;;;;;;;;7.10;99.90;;;;;;5050750;28;19924;-71
2023/12/28 02:43:44;;;;;;;;;;;7.10;99.90;;;;;;5050407;28;19921;-70
2023/12/28 02:46:12;;;;;;;;;;;7.10;99.90;;;;;;5046191;28;20402;-71
2023/12/28 02:48:39;;;;;;;;;;;7.20;99.90;;;;;;5049132;28;20307;-71
2023/12/28 02:51:07;;;;;;;;;;;7.20;99.90;;;;;;5050319;28;19920;-72
2023/12/28 02:53:35;;;;;;;;;;;7.20;99.90;;;;;;5050555;28;20043;-70
2023/12/28 02:56:03;;;;;;;;;;;7.30;99.90;;;;;;5050435;28;19925;-71
2023/12/28 02:58:32;;;;;;;;;;;7.40;99.90;;;;;;5049568;28;19928;-73
2023/12/28 03:01:00;;;;;;;;;;;7.40;99.90;;;;;;5055487;28;19921;-74
2023/12/28 03:03:28;;;;;;;;;;;7.40;99.90;;;;;;5055797;28;19929;-73
2023/12/28 03:05:56;;;;;;;;;;;7.30;99.90;;;;;;5049483;28;19921;-71
2023/12/28 03:08:23;;;;;;;;;;;7.30;99.90;;;;;;5047559;28;19920;-70
2023/12/28 03:10:52;;;;;;;;;;;7.30;99.90;;;;;;5052365;28;19921;-70
2023/12/28 03:13:20;;;;;;;;;;;7.30;99.90;;;;;;5053856;28;19921;-70
2023/12/28 03:15:49;;;;;;;;;;;7.40;99.90;;;;;;5046052;28;19978;-70
2023/12/28 03:18:17;;;;;;;;;;;7.50;99.90;;;;;;5053038;28;20020;-70
2023/12/28 03:20:45;;;;;;;;;;;7.50;99.90;;;;;;5053508;28;19927;-70
2023/12/28 03:23:13;;;;;;;;;;;7.50;99.90;;;;;;5053575;28;19927;-72
2023/12/28 03:25:41;;;;;;;;;;;7.40;99.90;;;;;;5053509;28;19921;-71
2023/12/28 03:28:08;;;;;;;;;;;7.50;99.90;;;;;;5048488;28;19940;-70
2023/12/28 03:30:36;;;;;;;;;;;7.50;99.90;;;;;;5039801;28;19931;-71
2023/12/28 03:33:06;;;;;;;;;;;7.40;99.90;;;;;;5050104;28;19921;-71
2023/12/28 03:35:33;;;;;;;;;;;7.50;99.90;;;;;;5049296;28;19921;-71
2023/12/28 03:38:01;;;;;;;;;;;7.60;99.90;;;;;;5052954;28;20379;-71
2023/12/28 03:40:29;;;;;;;;;;;7.60;99.90;;;;;;5052478;28;19927;-71
2023/12/28 03:42:57;;;;;;;;;;;7.50;99.90;;;;;;5052824;28;19920;-71
2023/12/28 03:45:24;;;;;;;;;;;7.50;99.90;;;;;;5033537;28;19935;-71
2023/12/28 03:47:52;;;;;;;;;;;7.40;99.90;;;;;;5044557;28;20426;-71
2023/12/28 03:50:22;;;;;;;;;;;7.40;99.90;;;;;;5052588;28;20387;-72
2023/12/28 03:52:51;;;;;;;;;;;7.40;99.90;;;;;;5052904;28;20292;-71
2023/12/28 03:55:19;;;;;;;;;;;7.50;99.90;;;;;;5052995;28;19928;-71
2023/12/28 03:57:47;;;;;;;;;;;7.50;99.90;;;;;;5052943;28;19924;-72
2023/12/28 04:00:16;;;;;;;;;;;7.50;99.90;;;;;;5049200;28;20300;-71
2023/12/28 04:02:44;;;;;;;;;;;7.50;99.90;;;;;;5068668;28;20003;-71
2023/12/28 04:05:12;;;;;;;;;;;7.50;99.90;;;;;;5045509;28;19927;-71
2023/12/28 04:07:42;;;;;;;;;;;7.60;99.90;;;;;;5052796;28;19927;-70
2023/12/28 04:10:10;;;;;;;;;;;7.60;99.90;;;;;;5044442;28;19940;-70
2023/12/28 04:12:38;;;;;;;;;;;7.60;99.90;;;;;;5052460;28;20129;-71
2023/12/28 04:15:07;;;;;;;;;;;7.70;99.90;;;;;;5047418;28;20023;-71
2023/12/28 04:17:34;;;;;;;;;;;7.70;99.90;;;;;;5052597;28;19925;-71
2023/12/28 04:20:03;;;;;;;;;;;7.70;99.90;;;;;;5051855;28;19928;-71
2023/12/28 04:22:31;;;;;;;;;;;7.70;99.90;;;;;;5052494;28;19927;-70
2023/12/28 04:25:00;;;;;;;;;;;7.60;99.90;;;;;;5044060;28;19975;-72
2023/12/28 04:27:27;;;;;;;;;;;7.70;99.90;;;;;;5052394;28;19925;-70
2023/12/28 04:29:55;;;;;;;;;;;7.80;99.90;;;;;;5044519;28;19921;-70
2023/12/28 04:32:23;;;;;;;;;;;7.80;99.90;;;;;;5072292;28;20354;-71
2023/12/28 04:34:51;;;;;;;;;;;7.80;99.90;;;;;;5046218;28;19921;-71
2023/12/28 04:37:19;;;;;;;;;;;7.80;99.90;;;;;;5052807;28;20006;-71
2023/12/28 04:39:47;;;;;;;;;;;7.80;99.90;;;;;;5051330;28;19978;-69
2023/12/28 04:42:16;;;;;;;;;;;7.80;99.90;;;;;;5052924;28;19927;-71
2023/12/28 04:44:44;;;;;;;;;;;7.80;99.90;;;;;;5043328;28;19920;-71
2023/12/28 04:47:12;;;;;;;;;;;8.00;99.90;;;;;;5033719;28;19921;-71
2023/12/28 04:49:39;;;;;;;;;;;8.00;99.90;;;;;;5051741;28;19921;-71
2023/12/28 04:52:07;;;;;;;;;;;8.00;99.90;;;;;;5051745;28;20346;-72
2023/12/28 04:54:35;;;;;;;;;;;8.00;99.90;;;;;;5052105;28;20318;-72
2023/12/28 04:57:03;;;;;;;;;;;8.00;99.90;;;;;;5051602;28;19920;-72
2023/12/28 04:59:32;;;;;;;;;;;8.10;99.90;;;;;;5055706;28;19932;-72
2023/12/28 05:02:00;;;;;;;;;;;8.10;99.90;;;;;;5061283;28;20315;-74
2023/12/28 05:04:28;;;;;;;;;;;8.10;99.90;;;;;;5045435;28;19928;-71
2023/12/28 05:06:56;;;;;;;;;;;8.10;99.90;;;;;;5043246;28;19956;-72
2023/12/28 05:09:24;;;;;;;;;;;8.10;99.90;;;;;;5051463;28;19924;-74
2023/12/28 05:11:51;;;;;;;;;;;8.10;99.90;;;;;;5051724;28;19924;-74
2023/12/28 05:14:19;;;;;;;;;;;8.20;99.90;;;;;;5050454;28;19928;-74
2023/12/28 05:16:48;;;;;;;;;;;8.20;99.90;;;;;;5051274;28;19928;-76
2023/12/28 05:19:16;;;;;;;;;;;8.20;99.90;;;;;;5050934;28;19927;-74
2023/12/28 05:21:44;;;;;;;;;;;8.20;99.90;;;;;;5051649;28;19921;-73
2023/12/28 05:24:12;;;;;;;;;;;8.20;99.90;;;;;;5051106;28;20003;-73
2023/12/28 05:26:39;;;;;;;;;;;8.20;99.90;;;;;;5051320;28;19925;-75
2023/12/28 05:29:07;;;;;;;;;;;8.30;99.90;;;;;;5047662;28;20441;-74
2023/12/28 05:31:35;;;;;;;;;;;8.20;99.90;;;;;;5070213;28;19981;-71
2023/12/28 05:34:06;;;;;;;;;;;8.20;99.90;;;;;;5043567;28;19920;-74
2023/12/28 05:36:34;;;;;;;;;;;8.20;99.90;;;;;;5051267;28;20019;-73
2023/12/28 05:39:02;;;;;;;;;;;8.20;99.90;;;;;;5050120;28;20387;-74
2023/12/28 05:41:29;;;;;;;;;;;8.10;99.90;;;;;;5051063;28;19928;-74
2023/12/28 05:43:57;;;;;;;;;;;8.10;99.90;;;;;;5050611;28;19924;-74
2023/12/28 05:46:25;;;;;;;;;;;8.20;99.90;;;;;;5049309;28;19927;-74
2023/12/28 05:48:53;;;;;;;;;;;8.10;99.90;;;;;;5050284;28;19927;-75
2023/12/28 05:51:22;;;;;;;;;;;8.10;99.90;;;;;;5050838;28;20397;-75
2023/12/28 05:53:52;;;;;;;;;;;8.10;99.90;;;;;;5032849;28;19944;-72
2023/12/28 05:56:20;;;;;;;;;;;8.00;99.90;;;;;;5050730;28;19928;-73
2023/12/28 05:58:48;;;;;;;;;;;8.10;99.90;;;;;;5050300;28;19925;-73
2023/12/28 06:01:15;;;;;;;;;;;8.10;99.90;;;;;;5070023;28;19974;-73
2023/12/28 06:03:44;;;;;;;;;;;8.00;99.90;;;;;;5050162;28;19920;-74
2023/12/28 06:06:11;;;;;;;;;;;8.10;99.90;;;;;;5050483;28;19929;-74
2023/12/28 06:08:41;;;;;;;;;;;8.00;99.90;;;;;;5050103;28;20364;-74
2023/12/28 06:11:08;;;;;;;;;;;8.00;99.90;;;;;;5050593;28;19920;-73
2023/12/28 06:13:36;;;;;;;;;;;8.00;99.90;;;;;;5050635;28;19921;-74
2023/12/28 06:16:04;;;;;;;;;;;8.00;99.90;;;;;;5050072;28;20411;-73
2023/12/28 06:18:32;;;;;;;;;;;7.90;99.90;;;;;;5043002;28;20009;-73
2023/12/28 06:21:00;;;;;;;;;;;8.00;99.90;;;;;;5050610;28;19921;-73
2023/12/28 06:23:28;;;;;;;;;;;7.90;99.90;;;;;;5050704;28;19924;-72
2023/12/28 06:25:57;;;;;;;;;;;7.90;99.90;;;;;;5050271;28;19924;-72
2023/12/28 06:28:25;;;;;;;;;;;7.90;99.90;;;;;;5041638;28;20346;-73
2023/12/28 06:30:53;;;;;;;;;;;7.90;99.90;;;;;;5066845;28;19920;-74
2023/12/28 06:33:21;;;;;;;;;;;7.90;99.90;;;;;;5042291;28;20394;-74
2023/12/28 06:35:49;;;;;;;;;;;8.00;99.90;;;;;;5044323;28;19927;-72
2023/12/28 06:38:16;;;;;;;;;;;7.90;99.90;;;;;;5049344;28;20449;-72
2023/12/28 06:40:44;;;;;;;;;;;8.00;99.90;;;;;;5010999;28;19976;-72
2023/12/28 06:43:13;;;;;;;;;;;8.00;99.90;;;;;;5010593;28;19971;-72
2023/12/28 06:45:41;;;;;;;;;;;7.90;99.90;;;;;;5013101;28;20341;-74
2023/12/28 06:48:09;;;;;;;;;;;8.00;99.90;;;;;;5013273;28;20268;-71
2023/12/28 06:50:36;;;;;;;;;;;7.90;99.90;;;;;;5008437;28;19925;-74
2023/12/28 06:53:04;;;;;;;;;;;7.90;99.90;;;;;;5014326;28;19921;-74
2023/12/28 06:55:32;;;;;;;;;;;7.90;99.90;;;;;;5014448;28;19925;-77
2023/12/28 06:58:00;;;;;;;;;;;8.00;99.90;;;;;;5012821;28;19929;-75
2023/12/28 07:00:30;;;;;;;;;;;8.00;99.90;;;;;;5024132;28;19924;-72
2023/12/28 07:02:58;;;;;;;;;;;7.90;99.90;;;;;;5017544;28;19922;-74
2023/12/28 07:05:26;;;;;;;;;;;8.10;99.90;;;;;;5014367;28;20373;-72
2023/12/28 07:07:54;;;;;;;;;;;8.00;99.90;;;;;;5014326;28;19929;-72
2023/12/28 07:10:22;;;;;;;;;;;8.00;99.90;;;;;;5013341;28;20020;-69
2023/12/28 07:12:49;;;;;;;;;;;7.90;99.90;;;;;;5014394;28;19929;-73
2023/12/28 07:15:18;;;;;;;;;;;7.90;99.90;;;;;;5010974;28;19975;-73
2023/12/28 07:17:47;;;;;;;;;;;7.90;99.90;;;;;;5014218;28;20027;-72
2023/12/28 07:20:15;;;;;;;;;;;7.90;99.90;;;;;;5012960;28;19975;-72
2023/12/28 07:22:51;;;;;;;;;;;7.90;99.90;;;;;;5013906;28;19956;-71
2023/12/28 07:25:21;;;;;;;;;;;7.90;99.90;;;;;;5013785;28;19929;-72
2023/12/28 07:27:49;;;;;;;;;;;7.90;99.90;;;;;;5007132;28;19925;-72
2023/12/28 07:30:17;;;;;;;;;;;7.90;99.90;;;;;;5019690;28;20010;-72
2023/12/28 07:32:46;;;;;;;;;;;7.90;99.90;;;;;;5014185;28;19932;-72
2023/12/28 07:35:14;;;;;;;;;;;7.90;99.90;;;;;;5003890;28;19922;-72
2023/12/28 07:37:42;;;;;;;;;;;7.90;99.90;;;;;;5013751;28;19925;-76
2023/12/28 07:40:10;;;;;;;;;;;8.00;99.90;;;;;;5043132;28;20287;-70
2023/12/28 07:42:38;;;;;;;;;;;8.00;99.90;;;;;;5053130;28;19921;-72
2023/12/28 07:45:06;;;;;;;;;;;8.00;99.90;;;;;;5053182;28;19921;-72
2023/12/28 07:47:34;;;;;;;;;;;8.00;99.90;;;;;;5044265;28;20302;-72
2023/12/28 07:50:04;;;;;;;;;;;8.00;99.90;;;;;;5052381;28;19931;-72
2023/12/28 07:52:32;;;;;;;;;;;8.00;99.90;;;;;;5027622;28;19921;-72
2023/12/28 07:55:00;;;;;;;;;;;8.00;99.90;;;;;;5052751;28;19921;-72
2023/12/28 07:57:28;;;;;;;;;;;8.10;99.90;;;;;;5035251;28;19947;-72
2023/12/28 07:59:56;;;;;;;;;;;8.10;99.90;;;;;;5052051;28;19943;-72
2023/12/28 08:02:23;;;;;;;;;;;8.10;99.90;;;;;;5060587;28;20613;-74
2023/12/28 08:04:51;;;;;;;;;;;8.10;99.90;;;;;;5045066;28;20358;-72
2023/12/28 08:07:20;;;;;;;;;;;8.10;99.90;;;;;;5052126;28;19926;-72
2023/12/28 08:09:48;;;;;;;;;;;8.20;99.90;;;;;;5052054;28;19957;-72
2023/12/28 08:12:16;;;;;;;;;;;8.20;99.90;;;;;;5048899;28;19921;-72
2023/12/28 08:14:44;;;;;;;;;;;8.20;99.90;;;;;;5045261;28;20395;-74
2023/12/28 08:17:12;;;;;;;;;;;8.20;99.90;;;;;;5043996;28;19931;-75
2023/12/28 08:19:40;;;;;;;;;;;8.20;99.90;;;;;;5033948;28;19920;-73
2023/12/28 08:22:08;;;;;;;;;;;8.20;99.90;;;;;;5045657;28;19921;-72
2023/12/28 08:24:37;;;;;;;;;;;8.20;99.90;;;;;;5043834;28;20281;-72
2023/12/28 08:27:05;;;;;;;;;;;8.20;99.90;;;;;;5044481;28;19921;-74
2023/12/28 08:29:33;;;;;;;;;;;8.20;99.90;;;;;;5039720;28;19920;-74
2023/12/28 08:32:01;;;;;;;;;;;8.20;99.90;;;;;;5055577;28;19924;-72
2023/12/28 08:34:28;;;;;;;;;;;8.30;99.90;;;;;;5049277;28;20392;-71
2023/12/28 08:36:56;;;;;;;;;;;8.30;99.90;;;;;;5050082;28;19932;-72
2023/12/28 08:39:24;;;;;;;;;;;8.30;99.90;;;;;;5047814;28;20264;-73
2023/12/28 08:41:53;;;;;;;;;;;8.30;99.90;;;;;;5050846;28;19956;-72
2023/12/28 08:44:21;;;;;;;;;;;8.30;99.90;;;;;;5054038;28;19921;-68
2023/12/28 08:46:49;;;;;;;;;;;8.30;99.90;;;;;;5055874;28;20341;-73
2023/12/28 08:49:17;;;;;;;;;;;8.30;99.90;;;;;;5047542;28;19924;-72
2023/12/28 08:51:45;;;;;;;;;;;8.30;99.90;;;;;;5062070;28;19925;-70
2023/12/28 08:54:14;;;;;;;;;;;8.30;99.90;;;;;;5057138;28;19928;-73
2023/12/28 08:56:42;;;;;;;;;;;8.40;99.90;;;;;;5052806;28;20347;-70
2023/12/28 08:59:11;;;;;;;;;;;8.30;99.90;;;;;;5053550;28;19920;-69
2023/12/28 09:01:38;;;;;;;;;;;8.40;99.90;;;;;;5055976;28;19974;-76
2023/12/28 09:04:06;;;;;;;;;;;8.40;99.90;;;;;;5060564;28;19928;-73
2023/12/28 09:06:35;;;;;;;;;;;8.50;99.90;;;;;;5056163;28;20091;-73
2023/12/28 09:09:04;;;;;;;;;;;8.50;99.90;;;;;;5056938;28;19924;-74
2023/12/28 09:11:31;;;;;;;;;;;8.60;99.90;;;;;;5057386;28;19920;-73
2023/12/28 09:13:59;;;;;;;;;;;8.70;99.90;;;;;;5058485;28;19928;-73
2023/12/28 09:16:29;;;;;;;;;;;8.90;99.90;;;;;;5059838;28;19942;-74
2023/12/28 09:18:57;;;;;;;;;;;9.00;99.90;;;;;;5050767;28;19920;-72
2023/12/28 09:21:26;;;;;;;;;;;9.10;99.90;;;;;;5042680;28;19921;-71
2023/12/28 09:23:54;;;;;;;;;;;9.20;99.90;;;;;;5053724;28;19935;-73
2023/12/28 09:26:21;;;;;;;;;;;9.40;99.90;;;;;;5053629;28;19921;-76
2023/12/28 09:28:49;;;;;;;;;;;9.70;99.90;;;;;;5047332;28;20508;-72
2023/12/28 09:31:17;;;;;;;;;;;9.90;99.90;;;;;;5056548;28;19927;-71
2023/12/28 09:33:46;;;;;;;;;;;10.10;99.90;;;;;;5065320;28;20308;-72
2023/12/28 09:36:15;;;;;;;;;;;10.10;99.90;;;;;;5053716;28;19924;-74
2023/12/28 09:38:43;;;;;;;;;;;10.10;99.90;;;;;;5046286;28;20368;-72
2023/12/28 09:41:12;;;;;;;;;;;10.20;99.90;;;;;;5047897;28;19965;-75
2023/12/28 09:43:43;;;;;;;;;;;10.10;99.90;;;;;;5045892;28;20334;-72
2023/12/28 09:46:11;;;;;;;;;;;9.90;99.90;;;;;;5045246;28;20402;-73
2023/12/28 09:48:39;;;;;;;;;;;9.90;99.90;;;;;;5048274;28;20346;-73
2023/12/28 09:51:11;;;;;;;;;;;9.80;99.90;;;;;;5047284;28;19920;-71
2023/12/28 09:53:43;;;;;;;;;;;9.80;99.90;;;;;;5040794;28;20017;-75
2023/12/28 09:56:12;;;;;;;;;;;9.70;99.90;;;;;;5044299;28;19986;-74
2023/12/28 09:58:39;;;;;;;;;;;9.70;99.90;;;;;;5045597;28;19924;-73
2023/12/28 10:01:08;;;;;;;;;;;9.70;99.90;;;;;;5046661;28;19936;-75
2023/12/28 10:03:36;;;;;;;;;;;9.70;99.90;;;;;;5044855;28;19935;-74
2023/12/28 10:06:04;;;;;;;;;;;9.80;99.90;;;;;;5041426;28;19928;-71
2023/12/28 10:08:35;;;;;;;;;;;10.00;99.90;;;;;;5044053;28;19928;-72
2023/12/28 10:11:03;;;;;;;;;;;10.30;99.90;;;;;;5048540;28;19929;-74
2023/12/28 10:13:34;;;;;;;;;;;10.40;99.90;;;;;;5051444;28;19933;-74
2023/12/28 10:16:05;;;;;;;;;;;10.60;99.90;;;;;;5044330;28;19925;-72
2023/12/28 10:18:32;;;;;;;;;;;10.80;99.90;;;;;;5049607;28;19929;-75
2023/12/28 10:21:01;;;;;;;;;;;11.10;99.90;;;;;;5055185;28;19925;-73
2023/12/28 10:23:30;;;;;;;;;;;11.40;99.90;;;;;;5048665;28;19936;-73
2023/12/28 10:25:59;;;;;;;;;;;11.80;99.90;;;;;;5050280;28;19959;-72
2023/12/28 10:28:31;;;;;;;;;;;11.90;99.90;;;;;;5050891;28;19929;-72
2023/12/28 10:30:59;;;;;;;;;;;12.20;99.90;;;;;;5047042;28;20790;-72
2023/12/28 10:33:34;;;;;;;;;;;12.20;99.90;;;;;;5047374;28;19964;-73
2023/12/28 10:36:06;;;;;;;;;;;12.40;99.90;;;;;;5049502;28;19935;-77
2023/12/28 10:38:36;;;;;;;;;;;12.40;99.90;;;;;;5046298;28;19929;-70
2023/12/28 10:41:06;;;;;;;;;;;12.40;99.90;;;;;;5077709;22;19928;-65
2023/12/28 10:43:39;;;;;;;;;;;12.40;99.90;;;;;;5082148;28;19953;-64
2023/12/28 10:46:08;;;;;;;;;;;12.20;99.90;;;;;;5082204;28;19927;-65
2023/12/28 10:48:39;;;;;;;;;;;12.10;99.90;;;;;;5081541;28;19928;-65
2023/12/28 10:51:10;;;;;;;;;;;12.20;99.90;;;;;;5079568;28;19928;-66
2023/12/28 10:53:38;;;;;;;;;;;12.20;99.90;;;;;;5069038;28;20371;-65
2023/12/28 10:56:15;;;;;;;;;;;12.30;99.90;;;;;;5068201;28;19924;-65
2023/12/28 10:58:47;;;;;;;;;;;12.20;99.90;;;;;;5069422;28;19936;-65
2023/12/28 11:01:16;;;;;;;;;;;12.20;99.90;;;;;;5068419;28;19976;-65
2023/12/28 11:03:45;;;;;;;;;;;12.30;99.90;;;;;;5067126;28;19924;-66
2023/12/28 11:06:13;;;;;;;;;;;12.10;99.90;;;;;;5072400;28;19932;-65
2023/12/28 11:08:42;;;;;;;;;;;12.10;99.90;;;;;;5078408;28;21520;-65
2023/12/28 11:11:12;;;;;;;;;;;12.30;99.90;;;;;;5068111;28;19921;-65
2023/12/28 11:13:41;;;;;;;;;;;12.20;99.90;;;;;;5067815;28;20417;-65
2023/12/28 11:16:09;;;;;;;;;;;12.30;99.90;;;;;;5069164;28;19928;-66
2023/12/28 11:18:37;;;;;;;;;;;12.30;99.90;;;;;;5071016;28;19931;-66
2023/12/28 11:21:05;;;;;;;;;;;12.60;99.90;;;;;;5068978;28;19928;-66
2023/12/28 11:23:35;;;;;;;;;;;12.90;99.90;;;;;;5071791;28;20029;-64
2023/12/28 11:26:03;;;;;;;;;;;12.90;99.90;;;;;;5072294;28;19989;-67
2023/12/28 11:28:32;;;;;;;;;;;12.90;99.90;;;;;;5068279;28;19945;-66
2023/12/28 11:31:00;;;;;;;;;;;12.90;99.90;;;;;;5067739;28;19929;-66
2023/12/28 11:33:31;;;;;;;;;;;13.00;99.90;;;;;;5067965;28;19928;-66
2023/12/28 11:35:59;;;;;;;;;;;13.20;99.90;;;;;;5068037;28;20389;-66
2023/12/28 11:38:27;;;;;;;;;;;13.40;99.90;;;;;;5069253;28;21229;-65
2023/12/28 11:40:57;;;;;;;;;;;13.30;99.90;;;;;;5069445;28;20410;-66
2023/12/28 11:43:33;;;;;;;;;;;13.50;99.90;;;;;;5075259;28;19931;-66
2023/12/28 11:46:05;;;;;;;;;;;13.80;99.90;;;;;;5068062;28;19963;-65
2023/12/28 11:48:33;;;;;;;;;;;14.10;99.90;;;;;;5067874;28;19928;-68
2023/12/28 11:51:01;;;;;;;;;;;14.20;99.90;;;;;;5070019;28;19923;-67
2023/12/28 11:53:29;;;;;;;;;;;14.20;99.90;;;;;;5068944;28;19935;-65
2023/12/28 11:56:03;;;;;;;;;;;14.10;99.90;;;;;;5069909;28;20391;-64
2023/12/28 11:58:32;;;;;;;;;;;14.00;99.90;;;;;;5073921;28;19968;-66
2023/12/28 12:01:02;;;;;;;;;;;13.90;99.90;;;;;;5067826;28;19957;-66
2023/12/28 12:03:30;;;;;;;;;;;13.90;99.90;;;;;;5065535;28;19928;-65
2023/12/28 12:05:58;;;;;;;;;;;13.90;99.90;;;;;;5066824;28;19928;-63
2023/12/28 12:08:26;;;;;;;;;;;14.00;99.90;;;;;;5068256;28;20021;-66
2023/12/28 12:11:00;;;;;;;;;;;14.00;99.90;;;;;;5065266;28;20465;-64
2023/12/28 12:13:29;;;;;;;;;;;13.90;99.90;;;;;;5068500;28;19928;-64
2023/12/28 12:15:57;;;;;;;;;;;13.90;99.90;;;;;;5069482;28;19928;-65
2023/12/28 12:18:26;;;;;;;;;;;13.70;99.90;;;;;;5065633;28;19931;-65
2023/12/28 12:20:55;;;;;;;;;;;13.40;99.90;;;;;;5069208;28;19928;-65
2023/12/28 12:23:23;;;;;;;;;;;13.20;99.90;;;;;;5068756;28;19990;-64
2023/12/28 12:25:52;;;;;;;;;;;13.10;99.90;;;;;;5069928;28;20704;-64
2023/12/28 12:28:20;;;;;;;;;;;12.90;99.90;;;;;;5066138;28;19928;-64
2023/12/28 12:30:52;;;;;;;;;;;12.70;99.90;;;;;;5068526;28;20421;-64
2023/12/28 12:33:19;;;;;;;;;;;12.40;99.90;;;;;;5066155;28;19928;-64
2023/12/28 12:35:49;;;;;;;;;;;12.30;99.90;;;;;;5066595;28;19942;-64
2023/12/28 12:38:17;;;;;;;;;;;12.20;99.90;;;;;;5064010;28;19939;-65
2023/12/28 12:40:45;;;;;;;;;;;12.20;99.90;;;;;;5066269;28;19932;-64
2023/12/28 12:43:13;;;;;;;;;;;12.10;99.90;;;;;;5066133;28;19928;-64
2023/12/28 12:45:40;;;;;;;;;;;12.00;99.90;;;;;;5072098;28;19924;-64
2023/12/28 12:48:08;;;;;;;;;;;11.90;99.90;;;;;;5067339;28;20013;-66
2023/12/28 12:50:37;;;;;;;;;;;11.90;99.90;;;;;;5071057;28;20299;-63
2023/12/28 12:53:06;;;;;;;;;;;11.90;99.90;;;;;;5065776;28;19928;-64
2023/12/28 12:55:34;;;;;;;;;;;11.90;99.90;;;;;;5069228;28;20040;-65
2023/12/28 12:58:03;;;;;;;;;;;11.80;99.90;;;;;;5068528;28;20759;-64
2023/12/28 13:00:31;;;;;;;;;;;11.70;99.90;;;;;;5066508;28;20326;-63
2023/12/28 13:02:59;;;;;;;;;;;11.60;99.90;;;;;;5070256;28;19928;-65
2023/12/28 13:05:29;;;;;;;;;;;11.70;99.90;;;;;;5068881;28;19934;-65
2023/12/28 13:07:56;;;;;;;;;;;11.60;99.90;;;;;;5069494;28;19928;-63
2023/12/28 13:10:26;;;;;;;;;;;11.60;99.90;;;;;;5065411;28;19928;-66
2023/12/28 13:12:53;;;;;;;;;;;11.60;99.90;;;;;;5066932;28;19928;-64
2023/12/28 13:15:21;;;;;;;;;;;11.50;99.90;;;;;;5065033;28;20501;-65
2023/12/28 13:17:49;;;;;;;;;;;11.40;99.90;;;;;;5064888;28;20291;-64
2023/12/28 13:20:17;;;;;;;;;;;11.30;99.90;;;;;;5064971;28;19923;-64
2023/12/28 13:22:45;;;;;;;;;;;11.30;99.90;;;;;;5066035;28;20450;-65
2023/12/28 13:25:12;;;;;;;;;;;11.20;99.90;;;;;;5065633;28;19939;-67
2023/12/28 13:27:42;;;;;;;;;;;11.20;99.90;;;;;;5067504;28;19924;-64
2023/12/28 13:30:11;;;;;;;;;;;11.20;99.90;;;;;;5065394;28;19924;-65
2023/12/28 13:32:39;;;;;;;;;;;11.10;99.90;;;;;;5064545;28;19920;-64
2023/12/28 13:35:07;;;;;;;;;;;11.10;99.90;;;;;;5070730;28;19923;-65
2023/12/28 13:37:35;;;;;;;;;;;11.10;99.90;;;;;;5066382;28;19928;-66
2023/12/28 13:40:04;;;;;;;;;;;11.20;99.90;;;;;;5066391;28;20387;-66
2023/12/28 13:42:32;;;;;;;;;;;11.20;99.90;;;;;;5067092;28;20444;-66
2023/12/28 13:45:02;;;;;;;;;;;11.20;99.90;;;;;;5066696;28;19985;-67
2023/12/28 13:47:30;;;;;;;;;;;11.20;99.90;;;;;;5063195;28;19928;-66
2023/12/28 13:49:58;;;;;;;;;;;11.20;99.90;;;;;;5065199;28;19929;-65
2023/12/28 13:52:26;;;;;;;;;;;11.30;99.90;;;;;;5066680;28;19967;-66
2023/12/28 13:54:53;;;;;;;;;;;11.20;99.90;;;;;;5064544;28;19932;-65
2023/12/28 13:57:21;;;;;;;;;;;11.20;99.90;;;;;;5065533;28;19928;-66
2023/12/28 13:59:49;;;;;;;;;;;11.20;99.90;;;;;;5067211;28;20025;-65
2023/12/28 14:02:18;;;;;;;;;;;11.10;99.90;;;;;;5066247;28;19924;-65
2023/12/28 14:04:46;;;;;;;;;;;11.10;99.90;;;;;;5063155;28;19929;-65
2023/12/28 14:07:14;;;;;;;;;;;11.10;99.90;;;;;;5068026;28;19925;-65
2023/12/28 14:09:42;;;;;;;;;;;11.10;99.90;;;;;;5063706;28;19967;-66
2023/12/28 14:12:09;;;;;;;;;;;11.10;99.90;;;;;;5067072;28;19934;-66
2023/12/28 14:14:37;;;;;;;;;;;11.10;99.90;;;;;;5068866;28;19956;-65
2023/12/28 14:17:05;;;;;;;;;;;11.00;99.90;;;;;;5063637;28;19928;-65
2023/12/28 14:19:34;;;;;;;;;;;10.90;99.90;;;;;;5062954;28;20363;-65
2023/12/28 14:22:03;;;;;;;;;;;10.80;99.90;;;;;;5075288;28;20387;-65
2023/12/28 14:24:31;;;;;;;;;;;10.80;99.90;;;;;;5066144;28;20429;-66
2023/12/28 14:26:58;;;;;;;;;;;10.70;99.90;;;;;;5072044;28;19928;-66
2023/12/28 14:29:26;;;;;;;;;;;10.70;99.90;;;;;;5066453;28;20310;-66
2023/12/28 14:31:54;;;;;;;;;;;10.70;99.90;;;;;;5064995;28;20373;-65